Weather

BOSCOMBE DOWN (EGDM)

METAR

EGDM 290250Z AUTO 02014KT 9999 SCT050/// 02/M00 Q1035

TAF

TAF EGDM 211948Z 2121/2212 23015G25KT 9999 BKN020 TEMPO 2121/2201 BKN012 BECMG 2201/2203 BKN010 PROB30 TEMPO 2201/2208 24020G35KT PROB40 TEMPO 2202/2210 3000 -RADZ BKN006 BECMG 2209/2211 SCT025 TEMPO 2211/2212 SCT015

BRISTOL AIRPORT (EGGD)

METAR

EGGD 290250Z AUTO 03018KT 9999 BKN028 03/M01 Q1036

TAF

TAF TAF EGGD 281707Z 2818/2918 05017KT 9999 SCT045 TEMPO 2818/2906 05020G30KT BECMG 2906/2909 05020G30KT

BRIZE NORTON (EGVN)

METAR

EGVN 290250Z 02014KT 9999 FEW035 02/M02 Q1037 NOSIG

TAF

TAF EGVN 290132Z 2903/3003 03015KT 9999 SCT030 PROB40 TEMPO 2903/2905 03015G25KT BECMG 2905/2908 03020G34KT BECMG 2918/2921 02012KT

OXFORD (EGTK)

METAR

EGTK 281850Z 03014KT CAVOK 06/M00 Q1033

Pressure charts

Click to see pressure charts
(redidrection to MetOffice website)